Time;durP1;ratioP1;P1;durP2;ratioP2;P2;SDS_P1;SDS_P2;PMS_P1;PMS_P2;Temp;Humidity;BMP_temperature;BMP_pressure;BME280_temperature;BME280_humidity;BME280_pressure;Samples;Min_cycle;Max_cycle;Signal;HPM_P1;HPM_P2
2022/12/28 00:01:19;;;;;;;6.63;3.00;;;15.60;55.40;;;;;;5014177;28;20460;-83
2022/12/28 00:03:47;;;;;;;4.50;2.33;;;15.60;55.20;;;;;;5010415;28;20452;-84
2022/12/28 00:06:15;;;;;;;6.83;2.90;;;15.70;55.20;;;;;;5012045;28;20476;-82
2022/12/28 00:08:44;;;;;;;4.30;2.60;;;15.60;55.20;;;;;;5015767;28;20999;-82
2022/12/28 00:11:13;;;;;;;4.47;2.40;;;15.60;55.10;;;;;;5018442;28;20461;-84
2022/12/28 00:13:55;;;;;;;4.00;2.03;;;15.60;55.20;;;;;;5015532;28;20440;-85
2022/12/28 00:16:25;;;;;;;5.40;2.67;;;15.60;55.10;;;;;;5015256;28;20440;-84
2022/12/28 00:18:53;;;;;;;3.57;2.60;;;15.60;55.10;;;;;;5014065;28;20451;-83
2022/12/28 00:21:21;;;;;;;4.50;2.60;;;15.60;55.10;;;;;;5019175;28;20467;-84
2022/12/28 00:23:51;;;;;;;6.03;2.50;;;15.60;55.10;;;;;;5012546;28;20460;-84
2022/12/28 00:26:20;;;;;;;6.30;2.70;;;15.60;55.00;;;;;;5013051;28;20444;-84
2022/12/28 00:28:48;;;;;;;4.10;2.63;;;15.60;54.90;;;;;;5014856;28;20465;-84
2022/12/28 00:31:16;;;;;;;5.23;2.80;;;15.60;54.90;;;;;;5014615;28;20461;-84
2022/12/28 00:33:44;;;;;;;5.30;2.70;;;15.60;54.90;;;;;;5014596;28;20527;-84
2022/12/28 00:36:13;;;;;;;3.80;2.37;;;15.60;54.90;;;;;;5012794;28;20531;-83
2022/12/28 00:38:41;;;;;;;7.57;2.87;;;15.60;54.90;;;;;;5015589;28;20511;-84
2022/12/28 00:41:10;;;;;;;4.33;3.00;;;15.60;54.90;;;;;;5015403;28;20504;-84
2022/12/28 00:43:38;;;;;;;3.97;2.50;;;15.60;54.90;;;;;;5013277;28;20529;-84
2022/12/28 00:46:06;;;;;;;8.70;2.57;;;15.60;55.20;;;;;;5009795;28;20449;-84
2022/12/28 00:48:34;;;;;;;3.73;2.90;;;15.70;54.90;;;;;;5012670;28;20457;-84
2022/12/28 00:51:03;;;;;;;6.43;3.00;;;15.60;54.80;;;;;;5010235;28;20487;-84
2022/12/28 00:53:31;;;;;;;3.40;2.27;;;15.60;54.80;;;;;;5012992;28;20448;-83
2022/12/28 00:56:05;;;;;;;5.60;2.53;;;15.60;54.80;;;;;;5008656;28;20459;-84
2022/12/28 00:58:34;;;;;;;3.73;2.33;;;15.60;54.90;;;;;;5007785;28;20435;-84
2022/12/28 01:01:02;;;;;;;9.13;2.60;;;15.60;54.90;;;;;;5013133;28;20478;-84
2022/12/28 01:03:30;;;;;;;3.00;2.63;;;15.60;54.80;;;;;;5009831;28;20463;-83
2022/12/28 01:05:58;;;;;;;5.60;2.40;;;15.60;54.80;;;;;;5013425;28;20460;-83
2022/12/28 01:08:26;;;;;;;3.13;2.50;;;15.60;54.70;;;;;;5011200;28;20455;-84
2022/12/28 01:10:54;;;;;;;7.57;2.47;;;15.60;54.80;;;;;;5018704;28;20464;-84
2022/12/28 01:13:22;;;;;;;9.37;3.10;;;15.50;54.80;;;;;;5015110;28;20460;-84
2022/12/28 01:15:51;;;;;;;9.33;2.57;;;15.50;54.90;;;;;;5010703;28;20449;-83
2022/12/28 01:18:19;;;;;;;3.30;2.63;;;15.50;54.80;;;;;;5011226;28;20464;-83
2022/12/28 01:20:47;;;;;;;6.10;2.57;;;15.60;54.90;;;;;;5011652;28;20470;-85
2022/12/28 01:23:16;;;;;;;2.80;2.20;;;15.50;54.80;;;;;;5010632;28;21001;-82
2022/12/28 01:25:43;;;;;;;3.63;3.10;;;15.50;54.90;;;;;;5011331;28;20462;-82
2022/12/28 01:28:11;;;;;;;3.97;3.10;;;15.50;54.80;;;;;;5011629;28;20456;-82
2022/12/28 01:30:39;;;;;;;3.30;3.00;;;15.50;54.90;;;;;;5014607;28;20469;-82
2022/12/28 01:33:09;;;;;;;3.30;2.37;;;15.50;54.90;;;;;;5014708;28;20459;-83
2022/12/28 01:35:37;;;;;;;2.60;2.40;;;15.50;54.90;;;;;;5012797;28;20588;-83
2022/12/28 01:38:05;;;;;;;2.53;2.33;;;15.50;55.00;;;;;;5014169;28;20455;-83
2022/12/28 01:40:33;;;;;;;3.90;2.90;;;15.50;55.10;;;;;;5012062;28;20470;-83
2022/12/28 01:43:01;;;;;;;4.50;3.30;;;15.50;55.00;;;;;;5014886;28;20449;-83
2022/12/28 01:45:29;;;;;;;8.27;3.53;;;15.50;55.00;;;;;;5014963;28;20471;-82
2022/12/28 01:47:56;;;;;;;7.90;4.20;;;15.50;55.10;;;;;;5013725;28;21044;-83
2022/12/28 01:50:27;;;;;;;7.03;4.07;;;15.50;55.00;;;;;;5012575;28;20989;-82
2022/12/28 01:52:56;;;;;;;5.03;3.63;;;15.50;55.10;;;;;;5015545;28;20444;-83
2022/12/28 01:55:25;;;;;;;6.37;4.00;;;15.40;55.00;;;;;;5012241;28;20452;-82
2022/12/28 01:57:54;;;;;;;8.33;3.63;;;15.40;55.00;;;;;;5010574;28;20444;-82
2022/12/28 02:00:23;;;;;;;7.03;4.00;;;15.50;55.20;;;;;;5009869;28;20464;-81
2022/12/28 02:02:53;;;;;;;6.90;4.57;;;15.40;55.00;;;;;;5010392;28;20435;-82
2022/12/28 02:05:23;;;;;;;5.53;3.90;;;15.40;55.30;;;;;;5008612;28;20454;-82
2022/12/28 02:07:54;;;;;;;8.37;4.27;;;15.40;55.30;;;;;;5009898;28;20444;-82
2022/12/28 02:10:22;;;;;;;5.60;3.80;;;15.40;55.20;;;;;;5009961;28;20468;-82
2022/12/28 02:13:11;;;;;;;6.13;4.13;;;15.40;55.40;;;;;;5009470;28;20452;-83
2022/12/28 02:15:39;;;;;;;7.07;4.40;;;15.40;55.40;;;;;;5011283;28;20469;-82
2022/12/28 02:18:06;;;;;;;5.50;4.27;;;15.30;55.30;;;;;;5012250;28;20940;-81
2022/12/28 02:20:40;;;;;;;5.47;4.40;;;15.30;55.30;;;;;;5007976;28;20464;-81
2022/12/28 02:23:24;;;;;;;7.30;4.30;;;15.30;55.40;;;;;;5005931;28;20452;-81
2022/12/28 02:26:16;;;;;;;5.27;4.17;;;15.30;55.30;;;;;;5005590;28;20452;-81
2022/12/28 02:29:08;;;;;;;5.10;3.60;;;15.30;55.40;;;;;;5007935;28;20440;-81
2022/12/28 02:31:39;;;;;;;6.73;4.03;;;15.30;55.40;;;;;;5009442;28;20481;-82
2022/12/28 02:34:10;;;;;;;5.93;4.20;;;15.30;55.40;;;;;;5013181;28;20442;-81
2022/12/28 02:36:41;;;;;;;4.20;3.60;;;15.30;55.40;;;;;;5010776;28;20459;-81
2022/12/28 02:39:10;;;;;;;9.03;4.50;;;15.30;55.40;;;;;;5009392;28;20499;-80
2022/12/28 02:41:38;;;;;;;6.67;4.50;;;15.20;55.40;;;;;;5006575;28;20445;-80
2022/12/28 02:44:07;;;;;;;5.00;4.13;;;15.30;55.40;;;;;;5004579;28;20456;-80
2022/12/28 02:52:11;;;;;;;5.73;3.60;;;15.20;55.20;;;;;;5029647;28;20478;-81
2022/12/28 02:57:55;;;;;;;6.23;3.53;;;15.20;55.40;;;;;;5013809;28;20451;-81
2022/12/28 03:00:25;;;;;;;7.20;3.43;;;15.20;55.40;;;;;;5014300;28;20445;-80
2022/12/28 03:02:59;;;;;;;8.37;3.97;;;15.20;55.40;;;;;;5003130;28;20423;-80
2022/12/28 03:08:19;;;;;;;3.37;3.07;;;15.20;55.90;;;;;;4996866;28;20440;-80
2022/12/28 03:10:51;;;;;;;5.10;3.60;;;15.20;55.50;;;;;;5012969;28;20472;-80
2022/12/28 03:16:12;;;;;;;5.07;3.50;;;15.20;55.50;;;;;;5008401;28;20927;-81
2022/12/28 03:32:33;;;;;;;4.33;3.00;;;15.10;55.60;;;;;;4997109;28;20468;-81
2022/12/28 03:35:02;;;;;;;6.43;3.10;;;15.10;55.50;;;;;;5012847;28;20455;-80
2022/12/28 03:37:32;;;;;;;2.90;2.50;;;15.10;55.70;;;;;;5013296;28;20448;-80
2022/12/28 03:40:02;;;;;;;3.43;2.80;;;15.10;55.60;;;;;;5016214;28;20476;-81
2022/12/28 03:45:20;;;;;;;6.20;2.93;;;15.10;55.60;;;;;;5019553;28;20451;-80
2022/12/28 03:48:09;;;;;;;4.80;3.00;;;15.10;55.60;;;;;;5012098;28;20511;-81
2022/12/28 03:50:37;;;;;;;9.10;3.13;;;15.10;55.70;;;;;;5012156;28;20482;-81
2022/12/28 03:53:05;;;;;;;3.33;3.03;;;15.10;55.70;;;;;;5005944;28;20476;-79
2022/12/28 03:55:34;;;;;;;3.30;3.00;;;15.10;55.70;;;;;;5013039;28;20444;-82
2022/12/28 03:58:02;;;;;;;5.50;3.00;;;15.10;55.60;;;;;;5009776;28;20460;-81
2022/12/28 04:00:30;;;;;;;4.27;2.90;;;15.10;55.60;;;;;;5008762;28;20464;-81
2022/12/28 04:02:58;;;;;;;3.37;3.07;;;15.10;55.70;;;;;;5010413;28;20472;-80
2022/12/28 04:05:27;;;;;;;7.60;3.20;;;15.00;55.60;;;;;;5013233;28;20550;-81
2022/12/28 04:07:55;;;;;;;6.80;2.87;;;15.10;55.70;;;;;;5010327;28;20448;-82
2022/12/28 04:10:23;;;;;;;4.50;3.00;;;15.00;55.60;;;;;;5011480;28;20483;-82
2022/12/28 04:12:54;;;;;;;6.10;2.80;;;15.00;55.80;;;;;;5011016;28;20454;-82
2022/12/28 04:15:22;;;;;;;3.07;2.77;;;15.10;55.70;;;;;;5011532;28;20460;-82
2022/12/28 04:17:50;;;;;;;2.97;2.70;;;15.10;55.70;;;;;;5012825;28;20448;-82
2022/12/28 04:20:18;;;;;;;3.10;2.50;;;15.10;55.70;;;;;;5022434;28;20491;-82
2022/12/28 04:22:48;;;;;;;3.40;2.83;;;15.00;55.80;;;;;;5016525;28;20451;-80
2022/12/28 04:25:15;;;;;;;2.83;2.63;;;15.10;55.70;;;;;;5012940;28;20452;-82
2022/12/28 04:27:43;;;;;;;3.90;2.93;;;15.10;55.80;;;;;;5013368;28;20463;-80
2022/12/28 04:30:12;;;;;;;3.90;3.03;;;15.10;55.70;;;;;;5009584;28;20967;-81
2022/12/28 04:32:40;;;;;;;5.40;2.80;;;15.10;55.80;;;;;;5010744;28;20467;-81
2022/12/28 04:35:08;;;;;;;3.47;2.83;;;15.10;55.80;;;;;;5011159;28;20839;-82
2022/12/28 04:37:36;;;;;;;4.93;2.80;;;15.10;55.90;;;;;;5011399;28;20511;-82
2022/12/28 04:40:07;;;;;;;2.43;2.33;;;15.00;55.90;;;;;;5010724;28;20464;-80
2022/12/28 04:42:34;;;;;;;4.17;2.93;;;15.10;56.00;;;;;;5008884;28;20510;-81
2022/12/28 04:45:02;;;;;;;3.90;2.97;;;15.10;56.00;;;;;;5004773;28;20457;-81
2022/12/28 04:47:30;;;;;;;4.23;2.83;;;15.10;55.90;;;;;;5012010;28;20435;-81
2022/12/28 04:49:58;;;;;;;4.77;2.77;;;15.10;56.00;;;;;;5014739;28;20444;-81
2022/12/28 04:52:26;;;;;;;3.20;2.40;;;15.10;56.00;;;;;;5018782;28;20468;-83
2022/12/28 04:54:54;;;;;;;4.43;3.33;;;15.10;56.10;;;;;;5025862;28;20449;-82
2022/12/28 04:57:23;;;;;;;4.90;3.00;;;15.10;56.00;;;;;;5031106;28;20443;-83
2022/12/28 04:59:51;;;;;;;2.50;2.30;;;15.10;56.00;;;;;;5032096;28;20458;-81
2022/12/28 05:02:18;;;;;;;6.10;3.27;;;15.10;56.00;;;;;;5034499;28;20452;-80
2022/12/28 05:04:46;;;;;;;3.80;2.67;;;15.10;56.10;;;;;;5033442;28;20452;-81
2022/12/28 05:07:14;;;;;;;2.77;2.57;;;15.10;56.00;;;;;;5032369;28;20453;-83
2022/12/28 05:09:42;;;;;;;7.67;3.20;;;15.10;56.20;;;;;;5033720;28;20460;-81
2022/12/28 05:12:10;;;;;;;4.00;2.57;;;15.10;56.20;;;;;;5030896;28;20472;-82
2022/12/28 05:14:41;;;;;;;3.57;2.60;;;15.10;56.10;;;;;;5031986;28;20426;-82
2022/12/28 05:17:08;;;;;;;3.73;2.60;;;15.10;56.10;;;;;;5033022;28;20457;-81
2022/12/28 05:19:36;;;;;;;3.00;2.70;;;15.10;56.10;;;;;;5030364;28;20456;-80
2022/12/28 05:22:04;;;;;;;4.10;2.73;;;15.10;56.20;;;;;;5026255;28;20476;-82
2022/12/28 05:24:32;;;;;;;2.63;2.43;;;15.10;56.30;;;;;;5017172;28;20447;-82
2022/12/28 05:27:00;;;;;;;2.80;2.60;;;15.10;56.20;;;;;;5016150;28;20456;-82
2022/12/28 05:29:28;;;;;;;7.43;2.70;;;15.10;56.30;;;;;;5011439;28;20541;-81
2022/12/28 05:31:57;;;;;;;2.50;2.40;;;15.10;56.30;;;;;;5010553;28;20468;-81
2022/12/28 05:34:25;;;;;;;2.77;2.57;;;15.20;56.40;;;;;;5008685;28;20452;-80
2022/12/28 05:36:53;;;;;;;2.50;2.27;;;15.10;56.30;;;;;;5006684;28;20448;-82
2022/12/28 05:39:21;;;;;;;4.00;2.63;;;15.10;56.40;;;;;;5013124;28;20522;-82
2022/12/28 05:41:49;;;;;;;3.83;2.13;;;15.20;56.50;;;;;;5015363;28;20444;-81
2022/12/28 05:44:17;;;;;;;6.30;2.60;;;15.10;56.40;;;;;;5013431;28;20452;-82
2022/12/28 05:46:45;;;;;;;2.93;2.70;;;15.20;56.50;;;;;;5014943;28;20456;-81
2022/12/28 05:49:15;;;;;;;2.80;2.60;;;15.20;56.40;;;;;;5014511;28;20468;-81
2022/12/28 05:51:43;;;;;;;3.03;2.50;;;15.20;56.60;;;;;;5017813;28;20475;-81
2022/12/28 05:54:11;;;;;;;3.07;2.40;;;15.20;56.50;;;;;;5014076;28;20484;-82
2022/12/28 05:56:40;;;;;;;2.43;2.30;;;15.20;56.50;;;;;;5014317;28;20478;-81
2022/12/28 05:59:08;;;;;;;2.90;2.70;;;15.20;56.50;;;;;;5012977;28;20982;-81
2022/12/28 06:01:37;;;;;;;6.40;2.57;;;15.20;56.60;;;;;;5012933;28;20445;-81
2022/12/28 06:04:07;;;;;;;3.30;2.97;;;15.20;56.60;;;;;;5009043;28;20460;-80
2022/12/28 06:06:36;;;;;;;2.93;2.43;;;15.20;56.70;;;;;;5012834;28;20444;-81
2022/12/28 06:09:05;;;;;;;2.10;2.00;;;15.30;56.60;;;;;;5010941;28;20487;-80
2022/12/28 06:11:32;;;;;;;2.10;2.00;;;15.30;56.70;;;;;;5013809;28;20540;-82
2022/12/28 06:14:02;;;;;;;4.43;2.20;;;15.20;56.70;;;;;;5008936;28;20461;-82
2022/12/28 06:16:31;;;;;;;2.43;2.13;;;15.20;56.80;;;;;;5009651;28;20487;-81
2022/12/28 06:18:59;;;;;;;5.40;2.23;;;15.20;56.80;;;;;;5004884;28;20453;-81
2022/12/28 06:21:29;;;;;;;3.23;1.90;;;15.20;56.90;;;;;;5012862;28;20456;-81
2022/12/28 06:23:59;;;;;;;2.20;2.00;;;15.20;56.80;;;;;;5008648;28;20480;-81
2022/12/28 06:26:28;;;;;;;2.13;2.03;;;15.20;56.90;;;;;;5011554;28;20494;-82
2022/12/28 06:28:56;;;;;;;2.20;2.03;;;15.20;57.00;;;;;;5009339;28;20448;-81
2022/12/28 06:31:25;;;;;;;2.40;2.20;;;15.20;56.90;;;;;;5009049;28;20468;-81
2022/12/28 06:33:55;;;;;;;4.03;2.53;;;15.30;57.10;;;;;;5011215;28;20456;-81
2022/12/28 06:36:25;;;;;;;2.50;2.40;;;15.30;57.00;;;;;;5013301;28;20539;-83
2022/12/28 06:38:54;;;;;;;2.53;2.33;;;15.30;57.00;;;;;;5010151;28;20448;-81
2022/12/28 06:41:24;;;;;;;2.30;2.20;;;15.30;57.00;;;;;;5011130;28;20453;-81
2022/12/28 06:43:52;;;;;;;2.40;2.20;;;15.30;57.00;;;;;;5010653;28;20452;-81
2022/12/28 06:46:20;;;;;;;2.13;1.93;;;15.30;56.90;;;;;;5013094;28;20445;-82
2022/12/28 06:48:49;;;;;;;1.90;1.80;;;15.30;57.00;;;;;;5010201;28;20444;-81
2022/12/28 06:51:18;;;;;;;3.27;2.30;;;15.30;57.10;;;;;;5010472;28;20460;-83
2022/12/28 06:53:46;;;;;;;2.40;2.23;;;15.30;57.00;;;;;;5011770;28;20472;-82
2022/12/28 06:56:15;;;;;;;2.33;2.13;;;15.30;57.20;;;;;;5011151;28;20457;-82
2022/12/28 06:58:45;;;;;;;3.07;2.00;;;15.30;57.10;;;;;;5013295;28;20448;-82
2022/12/28 07:01:14;;;;;;;1.80;1.70;;;15.40;57.20;;;;;;5010984;28;20962;-81
2022/12/28 07:03:42;;;;;;;2.10;2.00;;;15.40;57.20;;;;;;5008425;28;20452;-81
2022/12/28 07:06:09;;;;;;;2.60;2.07;;;15.40;57.10;;;;;;5013054;28;20461;-82
2022/12/28 07:08:38;;;;;;;3.10;1.90;;;15.40;57.20;;;;;;5008011;28;20443;-81
2022/12/28 07:11:06;;;;;;;4.10;1.77;;;15.40;57.30;;;;;;5009249;28;20463;-82
2022/12/28 07:13:35;;;;;;;1.80;1.70;;;15.40;57.20;;;;;;5009645;28;20475;-82
2022/12/28 07:16:05;;;;;;;1.90;1.80;;;15.40;57.20;;;;;;5014198;28;20448;-82
2022/12/28 07:18:34;;;;;;;2.30;1.50;;;15.40;57.30;;;;;;5007683;28;20452;-83
2022/12/28 07:21:03;;;;;;;1.80;1.70;;;15.40;57.40;;;;;;5012580;28;20487;-82
2022/12/28 07:23:31;;;;;;;2.00;1.90;;;15.40;57.50;;;;;;5013560;28;20444;-81
2022/12/28 07:26:03;;;;;;;1.80;1.70;;;15.40;57.40;;;;;;5022588;28;20483;-82
2022/12/28 07:28:31;;;;;;;1.80;1.70;;;15.40;57.40;;;;;;5013923;28;20440;-82
2022/12/28 07:30:59;;;;;;;1.70;1.60;;;15.40;57.40;;;;;;5017175;28;20464;-82
2022/12/28 07:33:28;;;;;;;1.80;1.70;;;15.40;57.40;;;;;;5018598;28;20476;-82
2022/12/28 07:35:58;;;;;;;1.50;1.40;;;15.40;57.50;;;;;;5017300;28;20459;-81
2022/12/28 07:38:25;;;;;;;1.63;1.60;;;15.50;57.50;;;;;;5017546;28;20454;-83
2022/12/28 07:40:53;;;;;;;2.30;1.60;;;15.50;57.60;;;;;;5018059;28;20469;-81
2022/12/28 07:43:21;;;;;;;1.63;1.53;;;15.50;57.40;;;;;;5017758;28;20535;-82
2022/12/28 07:45:49;;;;;;;1.90;1.80;;;15.50;57.50;;;;;;5015990;28;20454;-81
2022/12/28 07:48:17;;;;;;;2.00;1.90;;;15.50;57.50;;;;;;5014886;28;20444;-81
2022/12/28 07:50:47;;;;;;;1.93;1.83;;;15.50;57.50;;;;;;5016877;28;20467;-80
2022/12/28 07:53:15;;;;;;;1.73;1.63;;;15.50;57.60;;;;;;5015226;28;20476;-82
2022/12/28 07:55:55;;;;;;;1.37;1.37;;;15.50;57.60;;;;;;5017641;28;20444;-82
2022/12/28 07:58:23;;;;;;;2.10;2.00;;;15.60;57.60;;;;;;5015804;28;20444;-83
2022/12/28 08:00:51;;;;;;;2.37;1.70;;;15.50;57.50;;;;;;5015681;28;20499;-82
2022/12/28 08:03:19;;;;;;;2.00;1.90;;;15.50;57.60;;;;;;5015304;28;20532;-83
2022/12/28 08:05:48;;;;;;;1.80;1.70;;;15.60;57.70;;;;;;5015935;28;20441;-82
2022/12/28 08:08:16;;;;;;;1.90;1.80;;;15.60;57.70;;;;;;5016074;28;20455;-81
2022/12/28 08:10:44;;;;;;;2.40;1.80;;;15.60;57.80;;;;;;5016758;28;20519;-82
2022/12/28 08:13:12;;;;;;;1.70;1.60;;;15.60;57.70;;;;;;5014086;28;20495;-82
2022/12/28 08:15:40;;;;;;;1.97;1.87;;;15.60;57.90;;;;;;5016198;28;20471;-81
2022/12/28 08:18:08;;;;;;;1.93;1.83;;;15.60;57.80;;;;;;5013184;28;20455;-81
2022/12/28 08:20:38;;;;;;;1.77;1.67;;;15.60;57.70;;;;;;5016968;28;20464;-82
2022/12/28 08:23:08;;;;;;;1.80;1.70;;;15.60;57.70;;;;;;5013391;28;20440;-82
2022/12/28 08:25:36;;;;;;;1.43;1.43;;;15.60;57.70;;;;;;5015802;28;20535;-82
2022/12/28 08:28:04;;;;;;;1.63;1.63;;;15.60;57.90;;;;;;5016439;28;20449;-81
2022/12/28 08:30:32;;;;;;;1.80;1.70;;;15.60;57.90;;;;;;5006040;28;20963;-81
2022/12/28 08:33:01;;;;;;;1.80;1.70;;;15.60;57.90;;;;;;5012357;28;20468;-80
2022/12/28 08:35:28;;;;;;;1.60;1.50;;;15.70;57.80;;;;;;5013985;28;20531;-80
2022/12/28 08:37:56;;;;;;;1.87;1.80;;;15.70;57.80;;;;;;5015342;28;20454;-81
2022/12/28 08:40:28;;;;;;;3.17;2.03;;;15.70;57.80;;;;;;5013718;28;20472;-81
2022/12/28 08:42:57;;;;;;;2.07;1.97;;;15.70;57.80;;;;;;5015774;28;20451;-81
2022/12/28 08:45:26;;;;;;;2.00;1.90;;;15.80;58.00;;;;;;5014220;28;20961;-82
2022/12/28 08:47:54;;;;;;;2.00;1.90;;;15.70;57.90;;;;;;5014915;28;20448;-81
2022/12/28 08:50:22;;;;;;;1.93;1.83;;;15.70;58.00;;;;;;5010489;28;20480;-82
2022/12/28 08:52:58;;;;;;;2.00;1.90;;;15.80;58.00;;;;;;5014636;28;20463;-82
2022/12/28 08:55:27;;;;;;;1.93;1.80;;;15.70;58.00;;;;;;5012486;28;20959;-83
2022/12/28 08:57:55;;;;;;;1.90;1.80;;;15.80;58.70;;;;;;5014504;28;20453;-82
2022/12/28 09:00:23;;;;;;;1.57;1.57;;;15.80;58.10;;;;;;5016094;28;20472;-82
2022/12/28 09:02:51;;;;;;;2.20;2.10;;;15.90;58.20;;;;;;5012800;28;20448;-83
2022/12/28 09:05:19;;;;;;;1.80;1.70;;;15.80;58.20;;;;;;5014574;28;20473;-82
2022/12/28 09:07:47;;;;;;;1.90;1.80;;;15.90;58.20;;;;;;5013528;28;20531;-82
2022/12/28 09:10:15;;;;;;;2.00;1.90;;;15.90;58.10;;;;;;5013521;28;20484;-82
2022/12/28 09:12:45;;;;;;;1.83;1.80;;;16.00;58.10;;;;;;5008797;28;20471;-82
2022/12/28 09:15:13;;;;;;;2.20;2.10;;;16.00;58.10;;;;;;5012511;28;20468;-82
2022/12/28 09:17:41;;;;;;;2.10;2.00;;;16.00;58.00;;;;;;5013744;28;20454;-82
2022/12/28 09:20:10;;;;;;;2.40;2.20;;;16.00;58.10;;;;;;5011198;28;20475;-81
2022/12/28 09:22:38;;;;;;;2.77;1.60;;;16.00;58.20;;;;;;5014042;28;20450;-81
2022/12/28 09:25:07;;;;;;;2.20;2.10;;;16.00;58.10;;;;;;5012680;28;20519;-81
2022/12/28 09:27:35;;;;;;;2.10;2.00;;;16.00;58.20;;;;;;5012073;28;20444;-82
2022/12/28 09:30:05;;;;;;;1.77;1.67;;;16.00;58.10;;;;;;5009435;28;20460;-81
2022/12/28 09:32:33;;;;;;;2.10;2.00;;;16.10;58.30;;;;;;5011803;28;20470;-82
2022/12/28 09:35:01;;;;;;;1.90;1.80;;;16.10;58.40;;;;;;5013124;28;20500;-81
2022/12/28 09:37:29;;;;;;;2.40;1.87;;;16.10;58.20;;;;;;5010319;28;20459;-81
2022/12/28 09:39:57;;;;;;;1.50;1.50;;;16.10;58.40;;;;;;5011049;28;20465;-81
2022/12/28 09:42:28;;;;;;;1.63;1.60;;;16.20;58.50;;;;;;5012590;28;20445;-82
2022/12/28 09:45:01;;;;;;;1.67;1.67;;;16.20;58.50;;;;;;5012554;28;20527;-81
2022/12/28 09:47:34;;;;;;;1.90;1.80;;;16.20;58.30;;;;;;5008019;28;20471;-81
2022/12/28 09:50:23;;;;;;;1.57;1.57;;;16.20;58.30;;;;;;5009778;28;20468;-81
2022/12/28 09:52:56;;;;;;;1.80;1.70;;;16.20;58.30;;;;;;5010907;28;20490;-82
2022/12/28 09:55:23;;;;;;;1.97;1.87;;;16.20;58.30;;;;;;5008748;28;20527;-82
2022/12/28 09:57:54;;;;;;;1.97;1.83;;;16.20;58.30;;;;;;5013931;28;20534;-82
2022/12/28 10:00:23;;;;;;;2.00;1.90;;;16.30;58.40;;;;;;5007848;28;20555;-80
2022/12/28 10:02:55;;;;;;;2.00;1.90;;;16.30;58.40;;;;;;5014659;28;20448;-82
2022/12/28 10:05:23;;;;;;;2.50;1.67;;;16.30;58.40;;;;;;5013819;28;20839;-81
2022/12/28 10:07:51;;;;;;;1.70;1.60;;;16.30;58.60;;;;;;5014069;28;20449;-82
2022/12/28 10:10:20;;;;;;;1.73;1.63;;;16.30;58.60;;;;;;5010840;28;20477;-82
2022/12/28 10:12:48;;;;;;;1.93;1.70;;;16.30;58.50;;;;;;5014400;28;20617;-81
2022/12/28 10:15:16;;;;;;;2.00;1.90;;;16.30;58.40;;;;;;5013143;28;21069;-83
2022/12/28 10:17:44;;;;;;;1.80;1.70;;;16.30;58.60;;;;;;5012478;28;20502;-81
2022/12/28 10:20:18;;;;;;;1.80;1.70;;;16.30;58.60;;;;;;5013236;28;20468;-81
2022/12/28 10:22:48;;;;;;;2.03;1.93;;;16.30;58.50;;;;;;5009179;28;20557;-81
2022/12/28 10:25:18;;;;;;;2.83;1.70;;;16.30;58.70;;;;;;5013299;28;20440;-81
2022/12/28 10:27:46;;;;;;;1.90;1.80;;;16.40;58.70;;;;;;5015096;28;20448;-82
2022/12/28 10:30:18;;;;;;;1.97;1.87;;;16.40;58.70;;;;;;5010057;28;21018;-81
2022/12/28 10:32:50;;;;;;;1.83;1.60;;;16.40;58.60;;;;;;5006321;28;20459;-83
2022/12/28 10:35:25;;;;;;;2.17;1.90;;;16.40;58.50;;;;;;5021610;28;20566;-82
2022/12/28 10:37:59;;;;;;;1.87;1.77;;;16.40;58.80;;;;;;5017522;28;20451;-81
2022/12/28 10:40:29;;;;;;;1.70;1.60;;;16.40;59.30;;;;;;5015677;28;20467;-81
2022/12/28 10:42:56;;;;;;;1.77;1.67;;;16.40;58.80;;;;;;5012268;28;20444;-82
2022/12/28 10:45:27;;;;;;;2.80;1.70;;;16.40;58.80;;;;;;5014254;28;20465;-81
2022/12/28 10:47:55;;;;;;;1.97;1.87;;;16.50;58.90;;;;;;5007263;28;20455;-81
2022/12/28 10:50:55;;;;;;;2.17;1.90;;;16.50;58.90;;;;;;5015632;28;20486;-82
2022/12/28 10:53:28;;;;;;;1.73;1.73;;;16.60;58.70;;;;;;4972569;28;20480;-82
2022/12/28 10:56:07;;;;;;;2.07;1.97;;;16.50;58.70;;;;;;5008147;28;20472;-81
2022/12/28 10:58:35;;;;;;;1.80;1.70;;;16.60;58.70;;;;;;5014816;28;20440;-82
2022/12/28 11:01:05;;;;;;;1.80;1.70;;;16.50;58.70;;;;;;5013223;28;20530;-81
2022/12/28 11:03:35;;;;;;;1.97;1.87;;;16.50;58.80;;;;;;5013700;28;20448;-82
2022/12/28 11:06:15;;;;;;;1.60;1.50;;;16.50;58.70;;;;;;5010672;28;20535;-81
2022/12/28 11:09:00;;;;;;;1.80;1.70;;;16.60;58.80;;;;;;5008341;28;20458;-82
2022/12/28 11:11:28;;;;;;;2.00;1.90;;;16.60;58.80;;;;;;5015682;28;20451;-80
2022/12/28 11:14:02;;;;;;;1.93;1.83;;;16.60;59.00;;;;;;5009265;28;20452;-81
2022/12/28 11:16:31;;;;;;;1.70;1.70;;;16.60;59.00;;;;;;5015093;28;20444;-81
2022/12/28 11:18:59;;;;;;;2.10;2.00;;;16.60;58.90;;;;;;5009195;28;20452;-81
2022/12/28 11:21:28;;;;;;;1.93;1.83;;;16.60;58.90;;;;;;5014345;28;20491;-81
2022/12/28 11:23:56;;;;;;;2.00;1.90;;;16.60;59.00;;;;;;5013899;28;20448;-81
2022/12/28 11:26:24;;;;;;;1.80;1.70;;;16.60;58.90;;;;;;5013626;28;20460;-81
2022/12/28 11:28:52;;;;;;;1.73;1.63;;;16.70;59.00;;;;;;5013428;28;20452;-82
2022/12/28 11:31:23;;;;;;;1.93;1.83;;;16.60;59.00;;;;;;5009831;28;20523;-81
2022/12/28 11:33:52;;;;;;;1.70;1.70;;;16.70;59.20;;;;;;5006751;28;20444;-80
2022/12/28 11:36:22;;;;;;;1.80;1.70;;;16.70;59.20;;;;;;5013807;28;20476;-80
2022/12/28 11:38:52;;;;;;;1.77;1.67;;;16.70;59.20;;;;;;5014596;28;20452;-80
2022/12/28 11:41:51;;;;;;;1.93;1.87;;;16.80;59.10;;;;;;5005852;28;20488;-81
2022/12/28 11:44:49;;;;;;;2.07;1.97;;;16.80;59.10;;;;;;4946875;29;20472;-79
2022/12/28 11:47:31;;;;;;;2.07;1.97;;;16.80;59.00;;;;;;5008604;28;20456;-80
2022/12/28 11:50:38;;;;;;;1.80;1.70;;;16.80;59.40;;;;;;5015872;28;20456;-81
2022/12/28 11:53:21;;;;;;;1.60;1.60;;;16.80;59.30;;;;;;5002481;28;20449;-81
2022/12/28 11:56:04;;;;;;;1.50;1.43;;;16.80;59.40;;;;;;5015549;28;20476;-83
2022/12/28 11:59:14;;;;;;;1.63;1.53;;;16.80;59.30;;;;;;5007757;28;20452;-80
2022/12/28 12:01:43;;;;;;;1.80;1.70;;;16.80;59.20;;;;;;5019852;28;20445;-82
2022/12/28 12:04:29;;;;;;;1.70;1.60;;;16.80;59.40;;;;;;5014021;28;20440;-80
2022/12/28 12:07:07;;;;;;;2.10;2.00;;;16.80;59.30;;;;;;5018895;28;20436;-81
2022/12/28 12:09:42;;;;;;;2.03;1.93;;;16.80;59.40;;;;;;5010195;28;20476;-82
2022/12/28 12:12:37;;;;;;;1.90;1.80;;;16.80;59.40;;;;;;5017025;28;20472;-80
2022/12/28 12:15:16;;;;;;;1.87;1.77;;;16.80;59.40;;;;;;5017698;28;20468;-80
2022/12/28 12:17:45;;;;;;;1.83;1.83;;;16.80;59.50;;;;;;5020684;28;20437;-81
2022/12/28 12:20:20;;;;;;;1.67;1.67;;;16.90;59.70;;;;;;5016189;28;20457;-80
2022/12/28 12:22:51;;;;;;;1.80;1.70;;;16.90;59.70;;;;;;5019176;28;20439;-81
2022/12/28 12:25:21;;;;;;;1.40;1.40;;;16.90;59.50;;;;;;5012261;28;20433;-81
2022/12/28 12:27:54;;;;;;;1.80;1.70;;;16.90;59.60;;;;;;5010048;28;20457;-80
2022/12/28 12:30:24;;;;;;;1.93;1.83;;;16.90;59.60;;;;;;5010882;28;20468;-83
2022/12/28 12:33:01;;;;;;;2.13;2.03;;;16.90;59.80;;;;;;5016028;28;20527;-82
2022/12/28 12:38:58;;;;;;;2.10;2.00;;;17.00;59.80;;;;;;5002424;28;20475;-83
2022/12/28 12:41:35;;;;;;;2.10;2.00;;;17.00;59.70;;;;;;5016608;28;20456;-83
2022/12/28 12:44:51;;;;;;;2.27;2.17;;;17.00;59.70;;;;;;5020011;28;20459;-82
2022/12/28 12:47:38;;;;;;;4.67;2.30;;;17.00;59.70;;;;;;5009998;28;20544;-82
2022/12/28 12:50:29;;;;;;;2.20;2.10;;;17.00;59.60;;;;;;5017018;28;20486;-82
2022/12/28 12:53:07;;;;;;;2.63;2.43;;;17.00;59.80;;;;;;5020446;28;20456;-83
2022/12/28 12:56:33;;;;;;;2.67;2.57;;;17.10;59.80;;;;;;5020385;28;20472;-83
2022/12/28 13:00:08;;;;;;;2.80;2.60;;;17.10;59.80;;;;;;5003489;28;20474;-82
2022/12/28 13:06:29;;;;;;;2.43;2.33;;;17.10;59.80;;;;;;5015435;28;20436;-84
2022/12/28 13:09:12;;;;;;;2.73;2.63;;;17.00;59.80;;;;;;5022539;28;20464;-84
2022/12/28 13:11:49;;;;;;;2.90;2.70;;;17.00;59.80;;;;;;5015606;28;20453;-83
2022/12/28 13:14:26;;;;;;;2.50;2.40;;;17.10;59.80;;;;;;5015977;28;20498;-84
2022/12/28 13:16:58;;;;;;;2.60;2.50;;;17.10;59.90;;;;;;5013102;28;20472;-82
2022/12/28 13:19:27;;;;;;;2.50;2.40;;;17.10;59.90;;;;;;5005135;28;20560;-82
2022/12/28 13:21:55;;;;;;;2.77;2.53;;;17.10;60.00;;;;;;5014130;28;20452;-81
2022/12/28 13:24:26;;;;;;;2.67;2.50;;;17.10;59.90;;;;;;5008792;28;20951;-81
2022/12/28 13:26:59;;;;;;;3.33;2.43;;;17.10;60.00;;;;;;5007310;28;20429;-82
2022/12/28 13:29:40;;;;;;;2.50;2.30;;;17.10;60.00;;;;;;5010312;28;20486;-82
2022/12/28 14:07:12;;;;;;;3.27;1.90;;;17.10;60.10;;;;;;5025893;28;20658;-78
2022/12/28 14:09:40;;;;;;;2.23;2.13;;;16.90;61.20;;;;;;5007679;28;20504;-78
2022/12/28 14:12:08;;;;;;;2.00;1.90;;;16.90;61.30;;;;;;5002861;28;20455;-77
2022/12/28 14:14:36;;;;;;;2.50;2.30;;;17.00;61.20;;;;;;5001135;28;20449;-80
2022/12/28 14:17:04;;;;;;;2.00;1.90;;;17.00;61.00;;;;;;5007936;28;20503;-79
2022/12/28 14:19:31;;;;;;;1.83;1.73;;;17.00;60.80;;;;;;5009242;28;20482;-80
2022/12/28 14:21:59;;;;;;;2.17;2.07;;;17.10;60.70;;;;;;5013583;28;20454;-82